createdAt,value
2019-05-28T00:01:26.904Z,98283.63
2019-05-28T00:03:56.948Z,98270.34
2019-05-28T00:06:29.133Z,98269.67
2019-05-28T00:09:00.788Z,98272.20
2019-05-28T00:11:31.042Z,98267.19
2019-05-28T00:14:00.931Z,98266.88
2019-05-28T00:16:32.672Z,98266.73
2019-05-28T00:19:02.910Z,98266.77
2019-05-28T00:21:34.752Z,98264.48
2019-05-28T00:24:04.701Z,98259.99
2019-05-28T00:26:33.910Z,98253.34
2019-05-28T00:29:04.592Z,98246.97
2019-05-28T00:31:34.393Z,98239.34
2019-05-28T00:34:06.109Z,98233.41
2019-05-28T00:36:35.927Z,98231.44
2019-05-28T00:39:07.718Z,98226.95
2019-05-28T00:41:38.321Z,98216.48
2019-05-28T00:44:08.600Z,98215.40
2019-05-28T00:46:38.099Z,98203.33
2019-05-28T00:49:07.848Z,98204.17
2019-05-28T00:51:38.671Z,98197.13
2019-05-28T00:54:08.143Z,98197.96
2019-05-28T00:56:39.625Z,98186.39
2019-05-28T00:59:09.342Z,98188.07
2019-05-28T01:01:38.870Z,98185.61
2019-05-28T01:04:08.938Z,98182.33
2019-05-28T01:06:39.399Z,98180.12
2019-05-28T01:09:09.028Z,98186.08
2019-05-28T01:11:38.761Z,98180.91
2019-05-28T01:14:09.015Z,98179.67
2019-05-28T01:16:39.879Z,98180.86
2019-05-28T01:19:09.372Z,98184.63
2019-05-28T01:21:42.265Z,98185.83
2019-05-28T01:24:11.082Z,98182.25
2019-05-28T01:26:40.868Z,98182.59
2019-05-28T01:29:12.105Z,98185.55
2019-05-28T01:31:42.119Z,98182.25
2019-05-28T01:34:12.258Z,98182.89
2019-05-28T01:36:42.066Z,98177.77
2019-05-28T01:39:12.323Z,98179.11
2019-05-28T01:41:41.798Z,98181.13
2019-05-28T01:44:11.265Z,98187.02
2019-05-28T01:46:40.814Z,98171.45
2019-05-28T01:49:10.560Z,98170.55
2019-05-28T01:51:40.023Z,98168.09
2019-05-28T01:54:09.827Z,98169.48
2019-05-28T01:56:39.278Z,98174.27
2019-05-28T01:59:08.834Z,98172.65
2019-05-28T02:01:38.572Z,98170.86
2019-05-28T02:04:08.047Z,98166.37
2019-05-28T02:06:37.524Z,98161.66
2019-05-28T02:09:08.184Z,98164.31
2019-05-28T02:11:38.759Z,98162.28
2019-05-28T02:14:09.333Z,98161.64
2019-05-28T02:16:39.636Z,98160.66
2019-05-28T02:19:09.543Z,98157.46
2019-05-28T02:21:39.579Z,98160.16
2019-05-28T02:24:09.034Z,98158.09
2019-05-28T02:26:38.483Z,98152.48
2019-05-28T02:29:07.979Z,98146.02
2019-05-28T02:31:37.738Z,98144.05
2019-05-28T02:34:07.199Z,98141.80
2019-05-28T02:36:36.720Z,98147.02
2019-05-28T02:39:08.966Z,98142.03
2019-05-28T02:41:40.054Z,98145.52
2019-05-28T02:44:11.033Z,98153.07
2019-05-28T02:46:41.034Z,98158.14
2019-05-28T02:49:11.013Z,98156.56
2019-05-28T02:51:42.249Z,98161.63
2019-05-28T02:54:16.357Z,98158.88
2019-05-28T02:56:48.259Z,98160.44
2019-05-28T02:59:19.747Z,98158.34
2019-05-28T03:01:52.675Z,98160.52
2019-05-28T03:04:26.781Z,98165.47
2019-05-28T03:06:59.568Z,98169.11
2019-05-28T03:09:31.844Z,98171.20
2019-05-28T03:12:01.375Z,98169.24
2019-05-28T03:14:32.914Z,98169.17
2019-05-28T03:17:05.698Z,98165.80
2019-05-28T03:19:38.785Z,98166.42
2019-05-28T03:22:11.715Z,98166.83
2019-05-28T03:24:44.684Z,98170.84
2019-05-28T03:27:14.142Z,98170.26
2019-05-28T03:29:44.196Z,98172.47
2019-05-28T03:32:13.689Z,98174.42
2019-05-28T03:34:43.152Z,98174.31
2019-05-28T03:37:13.991Z,98176.27
2019-05-28T03:39:48.537Z,98180.61
2019-05-28T03:42:18.847Z,98183.75
2019-05-28T03:44:48.357Z,98182.56
2019-05-28T03:47:18.788Z,98187.80
2019-05-28T03:49:48.550Z,98183.28
2019-05-28T03:52:18.379Z,98183.47
2019-05-28T03:54:48.131Z,98183.75
2019-05-28T03:57:17.643Z,98186.27
2019-05-28T03:59:48.912Z,98187.07
2019-05-28T04:02:23.708Z,98185.60
2019-05-28T04:04:51.823Z,98191.37
2019-05-28T04:07:21.840Z,98189.63
2019-05-28T04:09:52.958Z,98184.38
2019-05-28T04:12:23.672Z,98184.20
2019-05-28T04:14:54.194Z,98181.80
2019-05-28T04:17:24.225Z,98177.88
2019-05-28T04:19:56.283Z,98170.96
2019-05-28T04:22:29.196Z,98174.56
2019-05-28T04:25:01.122Z,98178.92
2019-05-28T04:27:31.188Z,98182.84
2019-05-28T04:30:01.898Z,98181.27
2019-05-28T04:32:40.779Z,98184.13
2019-05-28T04:35:07.314Z,98184.34
2019-05-28T04:37:36.876Z,98184.66
2019-05-28T04:40:07.191Z,98184.00
2019-05-28T04:42:36.535Z,98177.73
2019-05-28T04:45:06.500Z,98174.00
2019-05-28T04:47:36.161Z,98175.43
2019-05-28T04:50:05.967Z,98173.16
2019-05-28T04:52:36.506Z,98173.02
2019-05-28T04:55:07.295Z,98175.84
2019-05-28T04:57:36.533Z,98177.19
2019-05-28T05:00:06.713Z,98177.39
2019-05-28T05:02:37.293Z,98180.55
2019-05-28T05:05:07.272Z,98172.34
2019-05-28T05:07:36.494Z,98176.25
2019-05-28T05:10:07.970Z,98176.49
2019-05-28T05:12:37.172Z,98175.51
2019-05-28T05:15:07.677Z,98173.69
2019-05-28T05:17:38.933Z,98176.11
2019-05-28T05:20:11.920Z,98169.94
2019-05-28T05:22:41.179Z,98172.50
2019-05-28T05:25:20.601Z,98176.44
2019-05-28T05:27:50.910Z,98174.73
2019-05-28T05:30:22.109Z,98185.05
2019-05-28T05:32:51.399Z,98175.89
2019-05-28T05:35:21.944Z,98180.64
2019-05-28T05:37:51.193Z,98181.50
2019-05-28T05:40:20.509Z,98175.92
2019-05-28T05:42:50.111Z,98186.87
2019-05-28T05:45:20.192Z,98192.55
2019-05-28T05:47:49.415Z,98191.55
2019-05-28T05:50:19.004Z,98190.92
2019-05-28T05:52:48.207Z,98186.57
2019-05-28T05:55:18.249Z,98190.23
2019-05-28T05:57:49.498Z,98186.86
2019-05-28T06:00:19.778Z,98187.56
2019-05-28T06:02:49.196Z,98194.08
2019-05-28T06:05:19.098Z,98188.32
2019-05-28T06:07:48.316Z,98186.16
2019-05-28T06:10:18.918Z,98182.80
2019-05-28T06:12:48.142Z,98180.13
2019-05-28T06:15:17.672Z,98179.27
2019-05-28T06:17:46.860Z,98186.62
2019-05-28T06:20:16.702Z,98199.78
2019-05-28T06:22:46.730Z,98194.67
2019-05-28T06:25:17.515Z,98187.47
2019-05-28T06:27:46.723Z,98190.22
2019-05-28T06:30:16.746Z,98180.75
2019-05-28T06:32:48.640Z,98175.41
2019-05-28T06:35:17.933Z,98170.89
2019-05-28T06:37:48.626Z,98170.09
2019-05-28T06:40:18.334Z,98176.00
2019-05-28T06:42:47.531Z,98188.61
2019-05-28T06:45:18.290Z,98193.67
2019-05-28T06:47:49.040Z,98202.82
2019-05-28T06:50:21.401Z,98211.35
2019-05-28T06:52:52.018Z,98214.23
2019-05-28T06:55:21.434Z,98221.94
2019-05-28T06:57:50.686Z,98234.82
2019-05-28T07:00:20.362Z,98234.39
2019-05-28T07:02:49.727Z,98236.08
2019-05-28T07:05:19.415Z,98239.84
2019-05-28T07:07:48.595Z,98240.65
2019-05-28T07:10:18.459Z,98253.33
2019-05-28T07:12:47.630Z,98274.00
2019-05-28T07:15:17.626Z,98270.02
2019-05-28T07:17:46.969Z,98273.03
2019-05-28T07:20:17.817Z,98285.07
2019-05-28T07:22:48.581Z,98285.12
2019-05-28T07:25:19.785Z,98298.14
2019-05-28T07:28:07.256Z,98299.68
2019-05-28T07:30:22.123Z,98301.05
2019-05-28T07:32:53.018Z,98297.62
2019-05-28T07:35:23.559Z,98291.42
2019-05-28T07:37:53.369Z,98287.91
2019-05-28T07:40:31.787Z,98290.58
2019-05-28T07:42:54.701Z,98295.95
2019-05-28T07:45:23.965Z,98288.63
2019-05-28T07:47:53.238Z,98281.61
2019-05-28T07:50:23.283Z,98281.19
2019-05-28T07:52:52.567Z,98281.86
2019-05-28T07:55:22.704Z,98268.09
2019-05-28T07:57:53.573Z,98276.66
2019-05-28T08:00:41.099Z,98279.30
2019-05-28T08:03:10.759Z,98278.81
2019-05-28T08:05:40.014Z,98270.25
2019-05-28T08:08:11.042Z,98268.81
2019-05-28T08:10:40.333Z,98265.17
2019-05-28T08:13:10.230Z,98261.03
2019-05-28T08:15:39.729Z,98254.10
2019-05-28T08:18:09.178Z,98251.05
2019-05-28T08:20:39.548Z,98252.88
2019-05-28T08:23:09.827Z,98243.92
2019-05-28T08:25:47.263Z,98240.84
2019-05-28T08:28:19.755Z,98235.17
2019-05-28T08:31:14.070Z,98232.36
2019-05-28T08:33:29.237Z,98236.48
2019-05-28T08:35:59.559Z,98228.44
2019-05-28T08:38:28.731Z,98220.31
2019-05-28T08:40:58.013Z,98210.36
2019-05-28T08:43:27.297Z,98201.89
2019-05-28T08:45:57.322Z,98211.36
2019-05-28T08:48:26.562Z,98223.83
2019-05-28T08:50:56.476Z,98220.53
2019-05-28T08:53:25.893Z,98209.39
2019-05-28T08:55:56.013Z,98211.07
2019-05-28T08:58:26.741Z,98199.67
2019-05-28T09:00:56.127Z,98212.35
2019-05-28T09:03:26.349Z,98201.67
2019-05-28T09:05:55.536Z,98201.20
2019-05-28T09:08:38.751Z,98197.42
2019-05-28T09:10:58.686Z,98188.96
2019-05-28T09:13:30.281Z,98186.78
2019-05-28T09:15:59.443Z,98176.22
2019-05-28T09:18:30.938Z,98179.77
2019-05-28T09:21:00.247Z,98179.56
2019-05-28T09:23:29.761Z,98177.78
2019-05-28T09:25:58.958Z,98184.09
2019-05-28T09:28:30.959Z,98182.59
2019-05-28T09:31:00.653Z,98187.84
2019-05-28T09:33:30.319Z,98203.72
2019-05-28T09:36:08.115Z,98188.58
2019-05-28T09:38:31.900Z,98185.84
2019-05-28T09:41:05.850Z,98188.79
2019-05-28T09:43:35.346Z,98180.47
2019-05-28T09:46:05.154Z,98179.27
2019-05-28T09:48:37.677Z,98194.84
2019-05-28T09:51:07.707Z,98190.62
2019-05-28T09:53:38.369Z,98195.45
2019-05-28T09:56:11.873Z,98181.52
2019-05-28T09:58:41.898Z,98173.53
2019-05-28T10:01:13.028Z,98169.81
2019-05-28T10:03:42.512Z,98167.59
2019-05-28T10:06:17.085Z,98171.34
2019-05-28T10:08:44.943Z,98162.95
2019-05-28T10:11:14.922Z,98164.45
2019-05-28T10:13:46.219Z,98167.59
2019-05-28T10:16:17.518Z,98169.55
2019-05-28T10:18:47.322Z,98168.20
2019-05-28T10:21:18.680Z,98169.58
2019-05-28T10:23:47.738Z,98165.24
2019-05-28T10:26:17.540Z,98165.98
2019-05-28T10:28:50.467Z,98162.63
2019-05-28T10:31:20.274Z,98164.67
2019-05-28T10:33:50.777Z,98156.45
2019-05-28T10:36:35.091Z,98169.70
2019-05-28T10:38:51.841Z,98158.56
2019-05-28T10:41:21.846Z,98166.59
2019-05-28T10:43:51.329Z,98166.03
2019-05-28T10:46:20.762Z,98161.40
2019-05-28T10:48:50.293Z,98166.55
2019-05-28T10:51:21.020Z,98157.13
2019-05-28T10:53:50.466Z,98151.98
2019-05-28T10:56:19.950Z,98153.34
2019-05-28T10:58:49.471Z,98149.80
2019-05-28T11:01:19.477Z,98153.05
2019-05-28T11:03:48.982Z,98143.98
2019-05-28T11:06:19.239Z,98146.09
2019-05-28T11:08:49.461Z,98140.61
2019-05-28T11:11:18.937Z,98143.78
2019-05-28T11:13:53.015Z,98143.13
2019-05-28T11:16:20.585Z,98143.67
2019-05-28T11:18:49.741Z,98139.19
2019-05-28T11:21:19.409Z,98146.05
2019-05-28T11:23:49.363Z,98149.06
2019-05-28T11:26:19.737Z,98148.89
2019-05-28T11:28:51.670Z,98153.86
2019-05-28T11:31:20.912Z,98143.84
2019-05-28T11:33:50.365Z,98152.14
2019-05-28T11:36:20.193Z,98149.39
2019-05-28T11:38:51.494Z,98165.00
2019-05-28T11:41:40.880Z,98164.82
2019-05-28T11:43:56.166Z,98162.27
2019-05-28T11:46:25.711Z,98157.41
2019-05-28T11:49:06.722Z,98153.05
2019-05-28T11:51:37.198Z,98149.74
2019-05-28T11:54:07.883Z,98158.34
2019-05-28T11:56:37.805Z,98157.61
2019-05-28T11:59:08.926Z,98161.64
2019-05-28T12:01:38.939Z,98169.47
2019-05-28T12:04:09.742Z,98176.15
2019-05-28T12:06:44.223Z,98177.25
2019-05-28T12:09:17.442Z,98177.22
2019-05-28T12:11:49.110Z,98186.23
2019-05-28T12:14:19.472Z,98198.77
2019-05-28T12:17:01.535Z,98206.84
2019-05-28T12:19:32.241Z,98190.53
2019-05-28T12:22:02.119Z,98197.88
2019-05-28T12:24:32.288Z,98207.36
2019-05-28T12:27:03.087Z,98197.20
2019-05-28T12:29:33.202Z,98207.55
2019-05-28T12:32:04.074Z,98216.49
2019-05-28T12:34:34.371Z,98231.23
2019-05-28T12:37:04.379Z,98236.34
2019-05-28T12:39:34.931Z,98243.79
2019-05-28T12:42:07.299Z,98254.58
2019-05-28T12:44:42.452Z,98258.56
2019-05-28T12:47:14.598Z,98267.03
2019-05-28T12:49:43.502Z,98276.69
2019-05-28T12:52:15.282Z,98288.28
2019-05-28T12:54:44.777Z,98289.53
2019-05-28T12:57:15.078Z,98283.09
2019-05-28T12:59:47.642Z,98268.16
2019-05-28T13:02:16.960Z,98255.73
2019-05-28T13:04:47.029Z,98243.43
2019-05-28T13:07:18.073Z,98231.11
2019-05-28T13:09:49.506Z,98238.54
2019-05-28T13:12:21.429Z,98244.55
2019-05-28T13:14:50.607Z,98243.49
2019-05-28T13:17:19.843Z,98258.39
2019-05-28T13:19:49.372Z,98268.33
2019-05-28T13:22:18.843Z,98268.86
2019-05-28T13:24:48.015Z,98274.78
2019-05-28T13:27:18.724Z,98277.27
2019-05-28T13:29:48.436Z,98277.98
2019-05-28T13:32:18.328Z,98275.06
2019-05-28T13:34:47.500Z,98276.37
2019-05-28T13:37:16.931Z,98275.52
2019-05-28T13:39:46.153Z,98285.58
2019-05-28T13:42:15.321Z,98294.70
2019-05-28T13:44:44.568Z,98287.47
2019-05-28T13:47:32.307Z,98295.66
2019-05-28T13:49:45.001Z,98304.61
2019-05-28T13:52:14.972Z,98302.75
2019-05-28T13:54:44.416Z,98300.73
2019-05-28T13:57:14.109Z,98287.77
2019-05-28T13:59:43.896Z,98285.20
2019-05-28T14:02:13.357Z,98280.88
2019-05-28T14:04:43.226Z,98274.66
2019-05-28T14:07:12.434Z,98251.16
2019-05-28T14:09:41.615Z,98265.00
2019-05-28T14:12:11.958Z,98271.02
2019-05-28T14:14:41.647Z,98275.75
2019-05-28T14:17:16.045Z,98276.13
2019-05-28T14:19:46.460Z,98276.84
2019-05-28T14:22:32.896Z,98275.84
2019-05-28T14:24:50.238Z,98280.95
2019-05-28T14:27:20.820Z,98271.56
2019-05-28T14:29:51.617Z,98275.02
2019-05-28T14:32:20.850Z,98277.55
2019-05-28T14:34:52.405Z,98286.92
2019-05-28T14:37:22.038Z,98295.09
2019-05-28T14:39:51.255Z,98302.55
2019-05-28T14:42:20.427Z,98305.46
2019-05-28T14:44:49.624Z,98311.09
2019-05-28T14:47:18.791Z,98328.18
2019-05-28T14:49:48.701Z,98335.86
2019-05-28T14:52:17.897Z,98354.11
2019-05-28T14:54:47.095Z,98364.28
2019-05-28T14:57:16.873Z,98370.52
2019-05-28T14:59:46.059Z,98387.06
2019-05-28T15:02:15.581Z,98396.38
2019-05-28T15:04:44.802Z,98410.25
2019-05-28T15:07:13.966Z,98398.00
2019-05-28T15:09:43.427Z,98403.19
2019-05-28T15:12:12.620Z,98423.30
2019-05-28T15:14:42.078Z,98421.73
2019-05-28T15:17:11.309Z,98431.20
2019-05-28T15:19:40.478Z,98423.34
2019-05-28T15:22:09.859Z,98426.81
2019-05-28T15:24:39.056Z,98420.15
2019-05-28T15:27:08.242Z,98421.02
2019-05-28T15:29:37.413Z,98427.86
2019-05-28T15:32:06.607Z,98438.39
2019-05-28T15:34:35.771Z,98419.39
2019-05-28T15:37:05.086Z,98407.45
2019-05-28T15:39:39.899Z,98399.16
2019-05-28T15:42:05.824Z,98399.20
2019-05-28T15:44:35.657Z,98409.33
2019-05-28T15:47:06.214Z,98417.69
2019-05-28T15:49:36.642Z,98418.66
2019-05-28T15:52:07.983Z,98405.85
2019-05-28T15:54:38.825Z,98404.98
2019-05-28T15:57:13.955Z,98399.23
2019-05-28T15:59:44.370Z,98395.79
2019-05-28T16:02:14.616Z,98397.60
2019-05-28T16:04:47.552Z,98393.70
2019-05-28T16:07:21.347Z,98394.75
2019-05-28T16:09:56.269Z,98389.28
2019-05-28T16:12:21.938Z,98377.94
2019-05-28T16:14:51.127Z,98383.89
2019-05-28T16:17:21.742Z,98385.25
2019-05-28T16:19:51.473Z,98383.97
2019-05-28T16:22:21.037Z,98385.09
2019-05-28T16:24:50.476Z,98384.95
2019-05-28T16:27:19.798Z,98385.97
2019-05-28T16:29:48.992Z,98385.95
2019-05-28T16:32:18.720Z,98393.35
2019-05-28T16:34:48.152Z,98399.30
2019-05-28T16:37:17.358Z,98398.42
2019-05-28T16:39:47.530Z,98408.55
2019-05-28T16:42:18.027Z,98406.17
2019-05-28T16:44:48.219Z,98414.75
2019-05-28T16:47:18.757Z,98413.94
2019-05-28T16:49:52.442Z,98414.27
2019-05-28T16:52:23.586Z,98414.75
2019-05-28T16:54:53.567Z,98417.76
2019-05-28T16:57:23.019Z,98409.70
2019-05-28T16:59:53.471Z,98407.47
2019-05-28T17:02:22.979Z,98414.63
2019-05-28T17:04:52.410Z,98416.69
2019-05-28T17:07:21.638Z,98423.72
2019-05-28T17:09:50.859Z,98425.46
2019-05-28T17:12:20.039Z,98426.06
2019-05-28T17:14:49.523Z,98428.20
2019-05-28T17:17:18.714Z,98432.22
2019-05-28T17:19:47.896Z,98437.01
2019-05-28T17:22:18.217Z,98441.98
2019-05-28T17:24:47.761Z,98445.48
2019-05-28T17:27:17.061Z,98449.89
2019-05-28T17:29:49.795Z,98457.06
2019-05-28T17:32:17.151Z,98462.80
2019-05-28T17:34:46.364Z,98469.59
2019-05-28T17:37:15.521Z,98469.97
2019-05-28T17:39:44.728Z,98472.58
2019-05-28T17:42:14.196Z,98473.81
2019-05-28T17:44:47.162Z,98474.31
2019-05-28T17:47:15.411Z,98477.41
2019-05-28T17:49:44.618Z,98476.84
2019-05-28T17:52:14.136Z,98483.80
2019-05-28T17:54:43.358Z,98487.05
2019-05-28T17:57:13.371Z,98488.13
2019-05-28T17:59:43.082Z,98487.97
2019-05-28T18:02:12.718Z,98492.48
2019-05-28T18:04:42.240Z,98491.09
2019-05-28T18:07:11.515Z,98498.79
2019-05-28T18:09:40.715Z,98504.36
2019-05-28T18:12:10.614Z,98502.80
2019-05-28T18:14:45.903Z,98498.33
2019-05-28T18:17:15.178Z,98505.11
2019-05-28T18:19:50.176Z,98504.70
2019-05-28T18:22:19.415Z,98512.28
2019-05-28T18:24:49.612Z,98518.84
2019-05-28T18:27:21.043Z,98522.34
2019-05-28T18:29:50.490Z,98530.48
2019-05-28T18:32:19.765Z,98532.84
2019-05-28T18:34:50.675Z,98535.46
2019-05-28T18:37:20.749Z,98544.73
2019-05-28T18:39:49.934Z,98560.48
2019-05-28T18:42:18.994Z,98567.28
2019-05-28T18:44:49.131Z,98572.52
2019-05-28T18:47:19.504Z,98571.95
2019-05-28T18:49:48.924Z,98574.53
2019-05-28T18:52:18.173Z,98580.18
2019-05-28T18:54:47.359Z,98590.50
2019-05-28T18:57:18.343Z,98592.83
2019-05-28T18:59:47.725Z,98595.98
2019-05-28T19:02:16.904Z,98595.45
2019-05-28T19:04:47.115Z,98594.16
2019-05-28T19:07:17.701Z,98604.06
2019-05-28T19:09:47.187Z,98607.28
2019-05-28T19:12:18.443Z,98615.63
2019-05-28T19:14:48.649Z,98617.74
2019-05-28T19:17:19.219Z,98623.24
2019-05-28T19:19:48.948Z,98625.50
2019-05-28T19:22:18.340Z,98630.13
2019-05-28T19:24:48.360Z,98646.34
2019-05-28T19:27:18.078Z,98655.50
2019-05-28T19:29:50.613Z,98669.84
2019-05-28T19:32:19.629Z,98676.20
2019-05-28T19:34:49.826Z,98669.25
2019-05-28T19:37:22.869Z,98678.84
2019-05-28T19:39:53.063Z,98682.70
2019-05-28T19:42:23.121Z,98695.47
2019-05-28T19:44:52.421Z,98694.15
2019-05-28T19:47:21.943Z,98704.64
2019-05-28T19:50:02.350Z,98714.89
2019-05-28T19:52:32.874Z,98717.48
2019-05-28T19:55:04.884Z,98724.34
2019-05-28T19:57:34.880Z,98725.80
2019-05-28T20:00:07.856Z,98736.50
2019-05-28T20:02:37.408Z,98748.14
2019-05-28T20:05:07.429Z,98749.07
2019-05-28T20:07:37.180Z,98746.05
2019-05-28T20:10:06.803Z,98754.83
2019-05-28T20:12:41.603Z,98758.94
2019-05-28T20:15:12.254Z,98763.70
2019-05-28T20:17:41.419Z,98765.73
2019-05-28T20:20:11.231Z,98766.79
2019-05-28T20:22:40.394Z,98765.25
2019-05-28T20:25:09.704Z,98777.59
2019-05-28T20:27:38.880Z,98787.00
2019-05-28T20:30:11.386Z,98795.44
2019-05-28T20:32:40.925Z,98800.05
2019-05-28T20:35:10.366Z,98799.73
2019-05-28T20:37:41.299Z,98795.84
2019-05-28T20:40:11.103Z,98802.17
2019-05-28T20:42:40.466Z,98803.02
2019-05-28T20:45:12.216Z,98806.52
2019-05-28T20:47:41.476Z,98811.70
2019-05-28T20:50:11.776Z,98818.53
2019-05-28T20:52:41.134Z,98824.34
2019-05-28T20:55:11.048Z,98820.11
2019-05-28T20:57:41.449Z,98824.72
2019-05-28T21:00:13.597Z,98826.52
2019-05-28T21:02:44.012Z,98829.90
2019-05-28T21:05:14.206Z,98835.20
2019-05-28T21:07:43.442Z,98837.50
2019-05-28T21:10:12.930Z,98839.06
2019-05-28T21:12:44.592Z,98838.72
2019-05-28T21:15:16.033Z,98843.45
2019-05-28T21:17:46.406Z,98848.02
2019-05-28T21:20:15.702Z,98853.84
2019-05-28T21:22:45.990Z,98851.15
2019-05-28T21:25:15.207Z,98850.66
2019-05-28T21:27:45.429Z,98862.27
2019-05-28T21:30:15.396Z,98854.36
2019-05-28T21:32:44.851Z,98864.04
2019-05-28T21:35:15.608Z,98861.17
2019-05-28T21:37:45.451Z,98866.13
2019-05-28T21:40:15.087Z,98869.77
2019-05-28T21:42:58.451Z,98878.23
2019-05-28T21:45:15.817Z,98867.60
2019-05-28T21:47:44.989Z,98882.22
2019-05-28T21:50:14.369Z,98885.70
2019-05-28T21:52:43.563Z,98888.24
2019-05-28T21:55:13.038Z,98888.37
2019-05-28T21:57:42.599Z,98889.47
2019-05-28T22:00:19.711Z,98892.60
2019-05-28T22:02:49.303Z,98894.41
2019-05-28T22:05:18.586Z,98899.95
2019-05-28T22:07:49.050Z,98902.11
2019-05-28T22:10:18.591Z,98903.74
2019-05-28T22:12:48.541Z,98905.44
2019-05-28T22:15:18.761Z,98911.47
2019-05-28T22:17:47.960Z,98910.14
2019-05-28T22:20:17.769Z,98917.35
2019-05-28T22:22:48.099Z,98929.99
2019-05-28T22:25:17.604Z,98927.97
2019-05-28T22:27:47.163Z,98927.37
2019-05-28T22:30:17.375Z,98930.55
2019-05-28T22:32:47.959Z,98933.44
2019-05-28T22:35:20.390Z,98934.98
2019-05-28T22:37:50.483Z,98932.28
2019-05-28T22:40:21.277Z,98932.28
2019-05-28T22:42:50.617Z,98940.08
2019-05-28T22:45:20.481Z,98946.84
2019-05-28T22:47:50.211Z,98949.30
2019-05-28T22:50:24.560Z,98952.68
2019-05-28T22:52:55.879Z,98951.95
2019-05-28T22:55:26.162Z,98953.78
2019-05-28T22:57:55.612Z,98955.47
2019-05-28T23:00:30.106Z,98960.47
2019-05-28T23:03:00.879Z,98963.14
2019-05-28T23:05:32.109Z,98959.93
2019-05-28T23:08:01.549Z,98971.87
2019-05-28T23:10:31.737Z,98967.05
2019-05-28T23:13:01.240Z,98975.19
2019-05-28T23:15:33.293Z,98970.91
2019-05-28T23:18:02.783Z,98976.22
2019-05-28T23:20:33.132Z,98982.03
2019-05-28T23:23:03.241Z,98982.51
2019-05-28T23:25:32.973Z,98988.72
2019-05-28T23:28:03.495Z,98992.88
2019-05-28T23:30:33.723Z,98994.64
2019-05-28T23:33:04.331Z,98999.33
2019-05-28T23:35:37.283Z,99008.27
2019-05-28T23:38:07.026Z,99003.08
2019-05-28T23:40:37.798Z,99005.91
2019-05-28T23:43:08.106Z,99011.77
2019-05-28T23:45:38.085Z,99009.75
2019-05-28T23:48:13.402Z,99022.51
2019-05-28T23:50:39.601Z,99023.22
2019-05-28T23:53:10.333Z,99025.21
2019-05-28T23:55:40.556Z,99031.97
2019-05-28T23:58:11.975Z,99027.38
